createdAt,value
2022-09-05T00:00:31.800Z,18.30
2022-09-05T00:03:22.176Z,18.47
2022-09-05T00:06:10.636Z,18.34
2022-09-05T00:09:01.982Z,18.36
2022-09-05T00:11:55.230Z,18.01
2022-09-05T00:15:17.464Z,18.22
2022-09-05T00:23:38.700Z,18.48
2022-09-05T00:24:27.648Z,18.40
2022-09-05T00:28:25.794Z,18.05
2022-09-05T00:31:54.603Z,18.30
2022-09-05T00:34:47.342Z,17.87
2022-09-05T00:37:37.048Z,17.64
2022-09-05T00:40:31.288Z,18.13
2022-09-05T00:43:20.983Z,17.58
2022-09-05T00:46:10.428Z,17.81
2022-09-05T00:49:09.524Z,18.15
2022-09-05T00:52:01.221Z,18.26
2022-09-05T00:55:11.318Z,18.21
2022-09-05T00:58:09.533Z,18.14
2022-09-05T01:00:58.950Z,17.95
2022-09-05T01:03:56.696Z,18.29
2022-09-05T01:06:53.751Z,18.26
2022-09-05T01:09:52.228Z,18.21
2022-09-05T01:12:52.722Z,18.26
2022-09-05T01:15:47.606Z,18.22
2022-09-05T01:19:01.840Z,18.26
2022-09-05T01:22:09.447Z,18.05
2022-09-05T01:25:08.827Z,17.64
2022-09-05T01:29:14.054Z,17.36
2022-09-05T01:31:11.620Z,16.99
2022-09-05T01:34:05.964Z,17.37
2022-09-05T01:37:00.105Z,17.62
2022-09-05T01:40:12.172Z,17.58
2022-09-05T01:43:06.755Z,17.54
2022-09-05T01:45:56.904Z,17.36
2022-09-05T01:48:50.410Z,17.48
2022-09-05T01:51:42.593Z,17.53
2022-09-05T01:54:37.087Z,17.26
2022-09-05T01:57:30.774Z,17.39
2022-09-05T02:00:24.091Z,17.34
2022-09-05T02:03:20.270Z,17.19
2022-09-05T02:06:29.129Z,17.27
2022-09-05T02:09:28.126Z,17.20
2022-09-05T02:12:23.157Z,17.18
2022-09-05T02:15:16.245Z,17.08
2022-09-05T02:18:07.917Z,16.99
2022-09-05T02:20:58.721Z,16.70
2022-09-05T02:23:48.156Z,16.61
2022-09-05T02:26:39.314Z,16.68
2022-09-05T02:29:30.027Z,16.72
2022-09-05T02:32:21.298Z,16.74
2022-09-05T02:35:17.615Z,16.77
2022-09-05T02:39:27.024Z,16.67
2022-09-05T02:45:10.436Z,16.77
2022-09-05T02:45:17.001Z,16.71
2022-09-05T02:47:43.784Z,16.69
2022-09-05T02:57:29.509Z,16.69
2022-09-05T02:57:36.377Z,16.58
2022-09-05T02:57:42.880Z,16.51
2022-09-05T03:00:15.625Z,16.37
2022-09-05T03:03:24.889Z,16.46
2022-09-05T03:06:35.031Z,16.44
2022-09-05T03:09:31.238Z,16.34
2022-09-05T03:12:53.148Z,16.63
2022-09-05T03:16:02.588Z,16.45
2022-09-05T03:19:46.484Z,16.57
2022-09-05T03:23:01.577Z,16.50
2022-09-05T03:26:20.131Z,16.58
2022-09-05T03:29:34.310Z,16.34
2022-09-05T03:32:49.062Z,16.37
2022-09-05T03:36:12.077Z,16.37
2022-09-05T03:39:25.859Z,16.23
2022-09-05T03:42:30.925Z,16.20
2022-09-05T03:46:02.473Z,16.23
2022-09-05T03:50:05.866Z,16.06
2022-09-05T03:57:07.654Z,15.86
2022-09-05T03:57:24.631Z,15.88
2022-09-05T03:58:58.934Z,15.90
2022-09-05T04:03:14.489Z,15.61
2022-09-05T04:08:08.536Z,15.58
2022-09-05T04:08:34.116Z,15.74
2022-09-05T04:11:23.760Z,15.66
2022-09-05T04:14:13.219Z,15.63
2022-09-05T04:17:03.478Z,15.66
2022-09-05T04:19:59.873Z,15.59
2022-09-05T04:23:05.875Z,16.08
2022-09-05T04:26:11.232Z,16.10
2022-09-05T04:29:15.187Z,16.49
2022-09-05T04:32:19.245Z,16.78
2022-09-05T04:35:26.379Z,17.29
2022-09-05T04:38:15.461Z,17.31
2022-09-05T04:41:03.721Z,17.68
2022-09-05T04:43:52.443Z,18.10
2022-09-05T04:46:48.243Z,18.64
2022-09-05T04:49:41.942Z,18.97
2022-09-05T04:52:46.996Z,19.41
2022-09-05T04:55:40.449Z,19.69
2022-09-05T04:59:41.930Z,19.92
2022-09-05T05:06:16.279Z,21.34
2022-09-05T05:06:17.109Z,20.68
2022-09-05T05:08:16.373Z,21.77
2022-09-05T05:17:54.142Z,22.10
2022-09-05T05:18:07.634Z,22.68
2022-09-05T05:18:08.145Z,22.48
2022-09-05T05:20:54.005Z,22.18
2022-09-05T05:23:43.039Z,21.96
2022-09-05T05:26:32.605Z,22.42
2022-09-05T05:29:22.108Z,22.78
2022-09-05T05:32:09.100Z,22.74
2022-09-05T05:34:59.263Z,23.26
2022-09-05T05:37:48.073Z,23.42
2022-09-05T05:40:40.972Z,23.16
2022-09-05T05:43:44.073Z,22.92
2022-09-05T05:46:36.481Z,22.49
2022-09-05T05:49:40.124Z,22.71
2022-09-05T05:52:50.916Z,23.24
2022-09-05T05:55:51.616Z,23.61
2022-09-05T05:58:53.763Z,23.96
2022-09-05T06:02:22.261Z,24.64
2022-09-05T06:05:29.110Z,24.38
2022-09-05T06:10:02.415Z,24.15
2022-09-05T06:14:58.707Z,24.30
2022-09-05T06:15:55.395Z,24.97
2022-09-05T06:20:05.329Z,26.12
2022-09-05T06:23:39.527Z,26.51
2022-09-05T06:27:02.340Z,26.97
2022-09-05T06:29:57.100Z,27.34
2022-09-05T06:33:16.741Z,28.02
2022-09-05T06:36:15.415Z,29.05
2022-09-05T06:39:11.370Z,29.95
2022-09-05T06:42:15.074Z,30.01
2022-09-05T06:45:37.855Z,29.69
2022-09-05T06:48:44.586Z,29.09
2022-09-05T06:52:09.746Z,29.83
2022-09-05T06:55:27.672Z,29.42
2022-09-05T06:58:32.779Z,29.91
2022-09-05T07:01:45.955Z,30.52
2022-09-05T07:05:23.440Z,30.66
2022-09-05T07:07:47.333Z,29.98
2022-09-05T07:10:39.358Z,29.86
2022-09-05T07:13:33.832Z,30.10
2022-09-05T07:16:37.297Z,29.96
2022-09-05T07:19:28.526Z,29.73
2022-09-05T07:22:48.001Z,30.35
2022-09-05T07:25:37.506Z,30.65
2022-09-05T07:28:29.487Z,30.06
2022-09-05T07:31:26.491Z,31.11
2022-09-05T07:34:29.147Z,32.58
2022-09-05T07:37:19.687Z,32.18
2022-09-05T07:40:24.743Z,32.12
2022-09-05T07:43:19.061Z,31.23
2022-09-05T07:46:13.346Z,30.46
2022-09-05T07:49:02.870Z,30.78
2022-09-05T07:55:20.402Z,31.02
2022-09-05T07:56:49.750Z,31.13
2022-09-05T07:58:14.955Z,32.09
2022-09-05T08:01:02.022Z,31.95
2022-09-05T08:03:55.694Z,33.89
2022-09-05T08:07:45.491Z,34.39
2022-09-05T08:10:08.154Z,33.12
2022-09-05T08:13:24.425Z,32.71
2022-09-05T08:16:10.763Z,33.54
2022-09-05T08:19:10.873Z,35.32
2022-09-05T08:21:59.397Z,36.67
2022-09-05T08:24:55.343Z,36.68
2022-09-05T08:27:56.413Z,36.27
2022-09-05T08:30:46.399Z,36.50
2022-09-05T08:33:34.956Z,36.48
2022-09-05T08:36:28.360Z,36.40
2022-09-05T08:39:18.053Z,36.24
2022-09-05T08:42:24.238Z,34.98
2022-09-05T08:46:48.401Z,34.50
2022-09-05T08:48:30.474Z,36.39
2022-09-05T08:51:30.408Z,35.73
2022-09-05T08:54:20.429Z,34.04
2022-09-05T08:57:18.075Z,33.42
2022-09-05T09:00:20.821Z,32.71
2022-09-05T09:03:16.950Z,31.18
2022-09-05T09:06:30.145Z,30.36
2022-09-05T09:09:18.595Z,29.73
2022-09-05T09:12:16.117Z,30.65
2022-09-05T09:15:05.930Z,29.19
2022-09-05T09:17:53.201Z,27.81
2022-09-05T09:20:48.626Z,29.09
2022-09-05T09:23:47.482Z,32.16
2022-09-05T09:26:38.502Z,32.63
2022-09-05T09:29:27.885Z,33.56
2022-09-05T09:32:19.413Z,34.89
2022-09-05T09:35:10.834Z,34.46
2022-09-05T09:38:21.413Z,34.21
2022-09-05T09:41:40.707Z,34.51
2022-09-05T09:44:57.386Z,35.61
2022-09-05T09:48:08.986Z,35.03
2022-09-05T09:51:31.275Z,36.50
2022-09-05T09:55:17.274Z,37.55
2022-09-05T09:58:22.504Z,39.65
2022-09-05T10:01:35.845Z,38.35
2022-09-05T10:10:34.751Z,38.04
2022-09-05T10:11:00.369Z,40.25
2022-09-05T10:11:54.175Z,41.45
2022-09-05T10:15:30.556Z,39.57
2022-09-05T10:18:31.779Z,38.35
2022-09-05T10:21:32.515Z,37.20
2022-09-05T10:24:50.319Z,34.47
2022-09-05T10:28:03.022Z,31.89
2022-09-05T10:32:13.712Z,30.50
2022-09-05T10:35:09.739Z,29.90
2022-09-05T10:37:20.597Z,29.32
2022-09-05T10:40:11.088Z,29.17
2022-09-05T10:43:02.309Z,28.52
2022-09-05T10:45:49.188Z,28.27
2022-09-05T10:48:42.735Z,28.65
2022-09-05T10:51:37.926Z,31.97
2022-09-05T10:54:35.749Z,35.24
2022-09-05T10:57:33.096Z,35.89
2022-09-05T11:02:24.157Z,36.15
2022-09-05T11:03:53.395Z,37.28
2022-09-05T11:06:54.988Z,38.02
2022-09-05T11:09:53.381Z,36.97
2022-09-05T11:12:57.745Z,34.67
2022-09-05T11:16:04.637Z,32.45
2022-09-05T11:18:59.376Z,34.55
2022-09-05T11:22:04.267Z,36.49
2022-09-05T11:25:05.135Z,37.72
2022-09-05T11:27:56.123Z,37.73
2022-09-05T11:30:46.579Z,36.82
2022-09-05T11:39:46.814Z,37.22
2022-09-05T11:40:02.214Z,36.22
2022-09-05T11:40:47.935Z,35.38
2022-09-05T11:44:25.611Z,31.85
2022-09-05T11:48:04.118Z,29.34
2022-09-05T11:51:14.711Z,28.64
2022-09-05T11:54:30.475Z,27.87
2022-09-05T11:57:34.133Z,27.51
2022-09-05T12:00:33.081Z,27.55
2022-09-05T12:03:59.680Z,28.64
2022-09-05T12:07:16.069Z,28.91
2022-09-05T12:10:43.552Z,27.85
2022-09-05T12:13:42.604Z,26.73
2022-09-05T12:16:47.298Z,26.32
2022-09-05T12:19:38.728Z,25.97
2022-09-05T12:22:29.758Z,25.94
2022-09-05T12:27:41.008Z,26.60
2022-09-05T12:29:32.654Z,26.71
2022-09-05T12:33:03.361Z,26.02
2022-09-05T12:36:13.345Z,25.26
2022-09-05T12:40:59.379Z,24.86
2022-09-05T12:42:14.805Z,24.47
2022-09-05T12:45:09.937Z,24.55
2022-09-05T12:48:01.097Z,24.05
2022-09-05T12:50:55.869Z,24.73
2022-09-05T12:53:44.801Z,24.58
2022-09-05T12:59:30.073Z,25.30
2022-09-05T13:03:00.955Z,26.06
2022-09-05T13:03:01.531Z,25.99
2022-09-05T13:06:06.770Z,25.38
2022-09-05T13:08:59.746Z,24.76
2022-09-05T13:14:50.428Z,24.61
2022-09-05T13:15:20.120Z,23.98
2022-09-05T13:18:13.191Z,23.85
2022-09-05T13:21:07.812Z,24.10
2022-09-05T13:24:10.180Z,24.64
2022-09-05T13:26:58.077Z,24.55
2022-09-05T13:30:46.921Z,24.65
2022-09-05T13:38:10.924Z,24.61
2022-09-05T13:38:11.032Z,24.74
2022-09-05T13:39:23.043Z,24.27
2022-09-05T13:42:18.430Z,24.35
2022-09-05T13:45:06.220Z,23.54
2022-09-05T13:48:28.167Z,24.62
2022-09-05T13:51:27.720Z,23.82
2022-09-05T13:54:34.312Z,24.54
2022-09-05T13:57:33.455Z,24.68
2022-09-05T14:00:56.842Z,24.10
2022-09-05T14:04:11.804Z,23.99
2022-09-05T14:07:44.906Z,23.94
2022-09-05T14:10:50.192Z,24.58
2022-09-05T14:13:55.315Z,24.57
2022-09-05T14:16:53.671Z,24.45
2022-09-05T14:19:58.497Z,24.12
2022-09-05T14:22:51.403Z,24.25
2022-09-05T14:25:40.520Z,23.86
2022-09-05T14:28:33.012Z,23.69
2022-09-05T14:35:06.468Z,23.66
2022-09-05T14:37:45.592Z,24.10
2022-09-05T14:38:00.624Z,24.11
2022-09-05T14:40:30.242Z,24.51
2022-09-05T14:43:14.217Z,24.93
2022-09-05T14:46:00.273Z,24.88
2022-09-05T14:48:56.543Z,25.19
2022-09-05T14:51:45.453Z,25.11
2022-09-05T15:02:38.331Z,24.50
2022-09-05T15:02:53.850Z,24.27
2022-09-05T15:03:05.088Z,24.16
2022-09-05T15:05:42.182Z,23.97
2022-09-05T15:08:18.311Z,23.43
2022-09-05T15:12:19.616Z,23.42
2022-09-05T15:14:03.793Z,24.17
2022-09-05T15:16:35.634Z,23.34
2022-09-05T15:19:05.897Z,23.60
2022-09-05T15:21:38.254Z,23.31
2022-09-05T15:24:17.247Z,23.29
2022-09-05T15:26:52.894Z,23.57
2022-09-05T15:29:23.944Z,23.28
2022-09-05T15:32:09.190Z,22.93
2022-09-05T15:34:40.394Z,23.49
2022-09-05T15:37:24.603Z,23.82
2022-09-05T15:40:23.319Z,24.25
2022-09-05T15:42:55.520Z,23.99
2022-09-05T15:45:28.360Z,23.80
2022-09-05T15:48:18.514Z,23.37
2022-09-05T15:50:51.393Z,23.76
2022-09-05T15:53:24.612Z,23.79
2022-09-05T15:56:00.902Z,23.35
2022-09-05T15:58:52.660Z,23.30
2022-09-05T16:01:48.521Z,22.84
2022-09-05T16:10:27.241Z,22.66
2022-09-05T16:10:42.867Z,23.20
2022-09-05T16:10:48.890Z,22.51
2022-09-05T16:12:46.710Z,22.78
2022-09-05T16:17:31.335Z,22.73
2022-09-05T16:23:23.943Z,22.70
2022-09-05T16:23:30.459Z,22.54
2022-09-05T16:24:00.750Z,22.62
2022-09-05T16:26:33.448Z,23.16
2022-09-05T16:29:04.252Z,22.42
2022-09-05T16:31:37.142Z,22.07
2022-09-05T16:34:12.059Z,22.21
2022-09-05T16:36:57.933Z,22.38
2022-09-05T16:39:40.999Z,21.96
2022-09-05T16:42:15.285Z,21.72
2022-09-05T16:44:48.261Z,22.19
2022-09-05T16:47:24.592Z,22.34
2022-09-05T16:50:00.342Z,22.44
2022-09-05T16:52:35.076Z,22.37
2022-09-05T16:55:10.046Z,22.13
2022-09-05T16:57:41.269Z,21.91
2022-09-05T17:00:11.113Z,21.61
2022-09-05T17:02:44.189Z,21.91
2022-09-05T17:05:14.537Z,21.28
2022-09-05T17:07:59.196Z,21.86
2022-09-05T17:10:32.085Z,21.67
2022-09-05T17:13:00.233Z,21.31
2022-09-05T17:15:30.669Z,21.80
2022-09-05T17:18:22.565Z,21.79
2022-09-05T17:20:56.080Z,21.93
2022-09-05T17:29:19.544Z,21.70
2022-09-05T17:29:23.472Z,22.08
2022-09-05T17:32:35.302Z,21.81
2022-09-05T17:35:18.049Z,21.75
2022-09-05T17:38:11.864Z,21.59
2022-09-05T17:41:06.365Z,21.73
2022-09-05T17:43:38.740Z,21.35
2022-09-05T17:46:17.961Z,21.42
2022-09-05T17:49:19.323Z,21.57
2022-09-05T17:52:28.403Z,21.67
2022-09-05T17:54:57.635Z,20.96
2022-09-05T17:57:45.344Z,21.21
2022-09-05T18:01:05.648Z,21.46
2022-09-05T18:04:16.514Z,21.37
2022-09-05T18:06:58.935Z,21.04
2022-09-05T18:10:14.825Z,21.17
2022-09-05T18:16:10.802Z,21.09
2022-09-05T18:19:33.271Z,20.20
2022-09-05T18:21:49.762Z,20.83
2022-09-05T18:24:25.005Z,20.57
2022-09-05T18:27:30.847Z,20.39
2022-09-05T18:29:58.428Z,20.47
2022-09-05T18:32:42.080Z,20.76
2022-09-05T18:35:32.185Z,20.60
2022-09-05T18:38:17.040Z,20.56
2022-09-05T18:40:51.608Z,20.29
2022-09-05T18:43:33.191Z,20.23
2022-09-05T18:46:08.374Z,19.91
2022-09-05T18:49:02.266Z,20.06
2022-09-05T18:51:36.461Z,19.96
2022-09-05T18:54:20.052Z,20.08
2022-09-05T18:57:24.089Z,19.96
2022-09-05T18:59:48.578Z,19.96
2022-09-05T19:02:41.115Z,19.90
2022-09-05T19:05:16.179Z,19.95
2022-09-05T19:07:48.193Z,19.68
2022-09-05T19:10:34.355Z,19.71
2022-09-05T19:13:10.412Z,19.54
2022-09-05T19:15:48.137Z,19.53
2022-09-05T19:18:26.071Z,19.17
2022-09-05T19:21:12.337Z,19.44
2022-09-05T19:23:54.747Z,19.33
2022-09-05T19:26:25.485Z,19.07
2022-09-05T19:36:46.280Z,19.03
2022-09-05T19:36:53.006Z,18.86
2022-09-05T19:37:05.471Z,18.89
2022-09-05T19:37:38.580Z,18.63
2022-09-05T19:47:25.509Z,18.73
2022-09-05T19:47:36.582Z,18.33
2022-09-05T19:47:42.433Z,18.66
2022-09-05T19:48:36.615Z,18.33
2022-09-05T19:51:17.420Z,18.80
2022-09-05T19:53:47.879Z,18.46
2022-09-05T19:56:25.697Z,18.68
2022-09-05T19:58:55.458Z,18.60
2022-09-05T20:01:23.616Z,18.34
2022-09-05T20:03:53.953Z,18.54
2022-09-05T20:06:29.078Z,18.51
2022-09-05T20:09:10.025Z,18.42
2022-09-05T20:11:45.638Z,17.71
2022-09-05T20:14:22.014Z,18.50
2022-09-05T20:16:51.033Z,17.64
2022-09-05T20:19:31.251Z,18.14
2022-09-05T20:22:10.085Z,17.65
2022-09-05T20:24:51.388Z,17.25
2022-09-05T20:27:27.164Z,17.10
2022-09-05T20:30:00.075Z,17.48
2022-09-05T20:32:39.291Z,17.04
2022-09-05T20:38:59.669Z,17.17
2022-09-05T20:43:09.482Z,17.30
2022-09-05T20:43:25.331Z,17.56
2022-09-05T20:43:53.552Z,17.25
2022-09-05T20:51:31.559Z,17.72
2022-09-05T20:54:21.962Z,17.58
2022-09-05T20:54:22.775Z,17.46
2022-09-05T20:55:38.331Z,17.66
2022-09-05T20:58:10.711Z,17.13
2022-09-05T21:00:40.235Z,16.87
2022-09-05T21:03:26.785Z,17.44
2022-09-05T21:05:55.645Z,17.49
2022-09-05T21:08:32.980Z,17.02
2022-09-05T21:11:04.050Z,16.43
2022-09-05T21:13:34.054Z,16.31
2022-09-05T21:16:04.540Z,16.43
2022-09-05T21:18:34.281Z,16.57
2022-09-05T21:21:27.915Z,15.80
2022-09-05T21:24:15.818Z,16.34
2022-09-05T21:26:49.539Z,16.30
2022-09-05T21:29:27.277Z,16.63
2022-09-05T21:32:04.034Z,15.98
2022-09-05T21:34:45.765Z,16.18
2022-09-05T21:37:18.430Z,15.84
2022-09-05T21:39:59.436Z,16.08
2022-09-05T21:46:30.078Z,16.07
2022-09-05T21:47:43.440Z,15.93
2022-09-05T21:48:15.151Z,15.47
2022-09-05T21:50:48.024Z,15.83
2022-09-05T21:56:31.796Z,15.28
2022-09-05T21:59:27.218Z,16.05
2022-09-05T21:59:29.385Z,16.04
2022-09-05T22:02:01.575Z,15.41
2022-09-05T22:04:40.976Z,15.61
2022-09-05T22:07:14.492Z,15.61
2022-09-05T22:09:43.114Z,15.61
2022-09-05T22:12:30.044Z,15.66
2022-09-05T22:15:07.332Z,15.94
2022-09-05T22:17:48.204Z,15.65
2022-09-05T22:20:20.404Z,16.04
2022-09-05T22:22:56.590Z,15.93
2022-09-05T22:25:28.333Z,15.91
2022-09-05T22:28:01.011Z,16.01
2022-09-05T22:30:29.466Z,15.55
2022-09-05T22:32:58.005Z,15.70
2022-09-05T22:35:28.560Z,15.54
2022-09-05T22:38:05.956Z,15.93
2022-09-05T22:40:37.066Z,15.39
2022-09-05T22:43:06.880Z,15.12
2022-09-05T22:45:38.541Z,14.84
2022-09-05T22:48:09.142Z,14.93
2022-09-05T22:50:37.690Z,15.03
2022-09-05T22:53:08.747Z,14.99
2022-09-05T22:55:38.024Z,14.85
2022-09-05T22:58:07.215Z,14.69
2022-09-05T23:00:35.403Z,14.47
2022-09-05T23:03:06.620Z,14.94
2022-09-05T23:05:35.105Z,14.86
2022-09-05T23:08:04.875Z,14.87
2022-09-05T23:10:35.078Z,14.85
2022-09-05T23:13:05.064Z,14.91
2022-09-05T23:15:33.706Z,14.52
2022-09-05T23:18:02.260Z,14.20
2022-09-05T23:20:32.265Z,14.57
2022-09-05T23:23:04.270Z,14.60
2022-09-05T23:25:34.063Z,14.01
2022-09-05T23:28:06.329Z,14.92
2022-09-05T23:30:35.273Z,14.35
2022-09-05T23:33:05.868Z,14.47
2022-09-05T23:35:34.253Z,14.64
2022-09-05T23:38:03.104Z,14.80
2022-09-05T23:40:31.352Z,14.67
2022-09-05T23:43:01.321Z,14.99
2022-09-05T23:45:30.198Z,14.87
2022-09-05T23:47:58.718Z,14.55
2022-09-05T23:50:27.752Z,14.79
2022-09-05T23:52:56.293Z,14.66
2022-09-05T23:55:24.741Z,14.59
2022-09-05T23:57:58.374Z,15.14
